sensor_id;sensor_type;location;lat;lon;timestamp;P1;durP1;ratioP1;P2;durP2;ratioP2
41815;SDS011;27814;53.452;-6.180;2023-01-09T00:01:34;9.60;;;1.90;;
41815;SDS011;27814;53.452;-6.180;2023-01-09T00:04:06;11.68;;;1.98;;
41815;SDS011;27814;53.452;-6.180;2023-01-09T00:06:34;10.75;;;2.00;;
41815;SDS011;27814;53.452;-6.180;2023-01-09T00:09:05;11.68;;;1.90;;
41815;SDS011;27814;53.452;-6.180;2023-01-09T00:11:33;12.07;;;2.28;;
41815;SDS011;27814;53.452;-6.180;2023-01-09T00:14:02;12.00;;;2.10;;
41815;SDS011;27814;53.452;-6.180;2023-01-09T00:16:30;10.77;;;1.83;;
41815;SDS011;27814;53.452;-6.180;2023-01-09T00:18:59;11.43;;;1.90;;
41815;SDS011;27814;53.452;-6.180;2023-01-09T00:21:28;10.50;;;2.10;;
41815;SDS011;27814;53.452;-6.180;2023-01-09T00:23:57;10.65;;;1.85;;
41815;SDS011;27814;53.452;-6.180;2023-01-09T00:26:25;13.55;;;2.50;;
41815;SDS011;27814;53.452;-6.180;2023-01-09T00:28:54;13.10;;;2.90;;
41815;SDS011;27814;53.452;-6.180;2023-01-09T00:31:22;9.98;;;1.67;;
41815;SDS011;27814;53.452;-6.180;2023-01-09T00:33:53;13.00;;;2.15;;
41815;SDS011;27814;53.452;-6.180;2023-01-09T00:36:25;12.15;;;2.20;;
41815;SDS011;27814;53.452;-6.180;2023-01-09T00:38:55;9.17;;;1.90;;
41815;SDS011;27814;53.452;-6.180;2023-01-09T00:41:25;7.40;;;1.73;;
41815;SDS011;27814;53.452;-6.180;2023-01-09T00:43:57;10.45;;;2.00;;
41815;SDS011;27814;53.452;-6.180;2023-01-09T00:46:30;7.80;;;1.63;;
41815;SDS011;27814;53.452;-6.180;2023-01-09T00:49:00;7.65;;;1.70;;
41815;SDS011;27814;53.452;-6.180;2023-01-09T00:51:30;13.63;;;2.00;;
41815;SDS011;27814;53.452;-6.180;2023-01-09T00:54:00;8.70;;;1.40;;
41815;SDS011;27814;53.452;-6.180;2023-01-09T00:56:30;6.55;;;1.20;;
41815;SDS011;27814;53.452;-6.180;2023-01-09T00:58:58;6.55;;;1.30;;
41815;SDS011;27814;53.452;-6.180;2023-01-09T01:01:27;8.52;;;1.60;;
41815;SDS011;27814;53.452;-6.180;2023-01-09T01:03:55;7.65;;;1.58;;
41815;SDS011;27814;53.452;-6.180;2023-01-09T01:06:23;6.75;;;1.70;;
41815;SDS011;27814;53.452;-6.180;2023-01-09T01:09:16;10.02;;;1.33;;
41815;SDS011;27814;53.452;-6.180;2023-01-09T01:11:44;7.43;;;1.10;;
41815;SDS011;27814;53.452;-6.180;2023-01-09T01:14:12;5.75;;;1.27;;
41815;SDS011;27814;53.452;-6.180;2023-01-09T01:16:41;5.95;;;1.17;;
41815;SDS011;27814;53.452;-6.180;2023-01-09T01:19:09;6.50;;;0.93;;
41815;SDS011;27814;53.452;-6.180;2023-01-09T01:21:37;5.45;;;0.80;;
41815;SDS011;27814;53.452;-6.180;2023-01-09T01:24:06;7.43;;;0.95;;
41815;SDS011;27814;53.452;-6.180;2023-01-09T01:26:35;5.30;;;0.82;;
41815;SDS011;27814;53.452;-6.180;2023-01-09T01:29:03;7.30;;;1.13;;
41815;SDS011;27814;53.452;-6.180;2023-01-09T01:31:32;4.90;;;0.80;;
41815;SDS011;27814;53.452;-6.180;2023-01-09T01:34:00;3.97;;;0.90;;
41815;SDS011;27814;53.452;-6.180;2023-01-09T01:36:28;5.90;;;1.30;;
41815;SDS011;27814;53.452;-6.180;2023-01-09T01:38:56;5.05;;;0.80;;
41815;SDS011;27814;53.452;-6.180;2023-01-09T01:41:25;5.30;;;1.10;;
41815;SDS011;27814;53.452;-6.180;2023-01-09T01:43:58;5.80;;;0.70;;
41815;SDS011;27814;53.452;-6.180;2023-01-09T01:46:28;4.63;;;0.80;;
41815;SDS011;27814;53.452;-6.180;2023-01-09T01:48:59;5.03;;;0.80;;
41815;SDS011;27814;53.452;-6.180;2023-01-09T01:51:31;4.25;;;0.70;;
41815;SDS011;27814;53.452;-6.180;2023-01-09T01:54:04;6.25;;;0.90;;
41815;SDS011;27814;53.452;-6.180;2023-01-09T01:56:37;3.40;;;0.73;;
41815;SDS011;27814;53.452;-6.180;2023-01-09T01:59:10;2.05;;;0.50;;
41815;SDS011;27814;53.452;-6.180;2023-01-09T02:01:44;5.05;;;0.88;;
41815;SDS011;27814;53.452;-6.180;2023-01-09T02:04:15;4.15;;;0.85;;
41815;SDS011;27814;53.452;-6.180;2023-01-09T02:06:44;2.67;;;0.75;;
41815;SDS011;27814;53.452;-6.180;2023-01-09T02:09:15;4.65;;;1.05;;
41815;SDS011;27814;53.452;-6.180;2023-01-09T02:11:49;4.03;;;1.00;;
41815;SDS011;27814;53.452;-6.180;2023-01-09T02:14:20;4.38;;;0.70;;
41815;SDS011;27814;53.452;-6.180;2023-01-09T02:16:53;5.68;;;0.70;;
41815;SDS011;27814;53.452;-6.180;2023-01-09T02:19:41;5.82;;;0.90;;
41815;SDS011;27814;53.452;-6.180;2023-01-09T02:22:29;6.05;;;0.70;;
41815;SDS011;27814;53.452;-6.180;2023-01-09T02:25:15;5.18;;;0.70;;
41815;SDS011;27814;53.452;-6.180;2023-01-09T02:28:11;5.38;;;0.80;;
41815;SDS011;27814;53.452;-6.180;2023-01-09T02:31:03;4.10;;;0.90;;
41815;SDS011;27814;53.452;-6.180;2023-01-09T02:33:41;4.57;;;0.65;;
41815;SDS011;27814;53.452;-6.180;2023-01-09T02:36:21;2.38;;;0.63;;
41815;SDS011;27814;53.452;-6.180;2023-01-09T02:39:04;3.88;;;0.60;;
41815;SDS011;27814;53.452;-6.180;2023-01-09T02:41:44;4.15;;;0.90;;
41815;SDS011;27814;53.452;-6.180;2023-01-09T02:44:20;4.30;;;0.75;;
41815;SDS011;27814;53.452;-6.180;2023-01-09T02:47:00;2.10;;;0.73;;
41815;SDS011;27814;53.452;-6.180;2023-01-09T02:49:31;4.47;;;0.70;;
41815;SDS011;27814;53.452;-6.180;2023-01-09T02:52:08;3.58;;;0.80;;
41815;SDS011;27814;53.452;-6.180;2023-01-09T02:55:02;5.88;;;0.85;;
41815;SDS011;27814;53.452;-6.180;2023-01-09T02:57:41;3.22;;;1.00;;
41815;SDS011;27814;53.452;-6.180;2023-01-09T03:00:23;3.15;;;0.50;;
41815;SDS011;27814;53.452;-6.180;2023-01-09T03:03:05;4.55;;;1.02;;
41815;SDS011;27814;53.452;-6.180;2023-01-09T03:05:39;4.50;;;0.80;;
41815;SDS011;27814;53.452;-6.180;2023-01-09T03:08:13;3.78;;;0.80;;
41815;SDS011;27814;53.452;-6.180;2023-01-09T03:10:45;5.45;;;0.80;;
41815;SDS011;27814;53.452;-6.180;2023-01-09T03:13:20;2.15;;;0.55;;
41815;SDS011;27814;53.452;-6.180;2023-01-09T03:15:51;2.08;;;0.50;;
41815;SDS011;27814;53.452;-6.180;2023-01-09T03:18:23;3.10;;;0.52;;
41815;SDS011;27814;53.452;-6.180;2023-01-09T03:20:54;2.38;;;0.52;;
41815;SDS011;27814;53.452;-6.180;2023-01-09T03:23:23;4.60;;;0.68;;
41815;SDS011;27814;53.452;-6.180;2023-01-09T03:25:51;3.28;;;0.50;;
41815;SDS011;27814;53.452;-6.180;2023-01-09T03:28:25;3.80;;;0.75;;
41815;SDS011;27814;53.452;-6.180;2023-01-09T03:30:55;2.17;;;0.35;;
41815;SDS011;27814;53.452;-6.180;2023-01-09T03:33:25;2.95;;;0.68;;
41815;SDS011;27814;53.452;-6.180;2023-01-09T03:35:54;1.92;;;0.40;;
41815;SDS011;27814;53.452;-6.180;2023-01-09T03:38:22;2.20;;;0.47;;
41815;SDS011;27814;53.452;-6.180;2023-01-09T03:40:50;1.95;;;0.40;;
41815;SDS011;27814;53.452;-6.180;2023-01-09T03:43:19;3.53;;;0.50;;
41815;SDS011;27814;53.452;-6.180;2023-01-09T03:45:47;1.48;;;0.40;;
41815;SDS011;27814;53.452;-6.180;2023-01-09T03:48:15;2.45;;;0.60;;
41815;SDS011;27814;53.452;-6.180;2023-01-09T03:50:46;0.52;;;0.20;;
41815;SDS011;27814;53.452;-6.180;2023-01-09T03:53:15;2.07;;;0.30;;
41815;SDS011;27814;53.452;-6.180;2023-01-09T03:55:44;2.15;;;0.40;;
41815;SDS011;27814;53.452;-6.180;2023-01-09T03:58:13;1.25;;;0.30;;
41815;SDS011;27814;53.452;-6.180;2023-01-09T04:00:42;0.43;;;0.20;;
41815;SDS011;27814;53.452;-6.180;2023-01-09T04:03:14;1.23;;;0.22;;
41815;SDS011;27814;53.452;-6.180;2023-01-09T04:05:46;0.70;;;0.30;;
41815;SDS011;27814;53.452;-6.180;2023-01-09T04:08:16;0.43;;;0.20;;
41815;SDS011;27814;53.452;-6.180;2023-01-09T04:10:45;1.70;;;0.20;;
41815;SDS011;27814;53.452;-6.180;2023-01-09T04:13:14;2.00;;;0.20;;
41815;SDS011;27814;53.452;-6.180;2023-01-09T04:15:42;0.80;;;0.35;;
41815;SDS011;27814;53.452;-6.180;2023-01-09T04:18:10;1.30;;;0.20;;
41815;SDS011;27814;53.452;-6.180;2023-01-09T04:20:39;0.57;;;0.10;;
41815;SDS011;27814;53.452;-6.180;2023-01-09T04:23:09;1.63;;;0.17;;
41815;SDS011;27814;53.452;-6.180;2023-01-09T04:25:37;0.45;;;0.10;;
41815;SDS011;27814;53.452;-6.180;2023-01-09T04:28:05;1.30;;;0.10;;
41815;SDS011;27814;53.452;-6.180;2023-01-09T04:30:34;1.08;;;0.30;;
41815;SDS011;27814;53.452;-6.180;2023-01-09T04:33:02;1.88;;;0.60;;
41815;SDS011;27814;53.452;-6.180;2023-01-09T04:35:30;0.60;;;0.37;;
41815;SDS011;27814;53.452;-6.180;2023-01-09T04:37:59;2.15;;;0.50;;
41815;SDS011;27814;53.452;-6.180;2023-01-09T04:40:28;2.40;;;0.47;;
41815;SDS011;27814;53.452;-6.180;2023-01-09T04:42:56;2.03;;;0.20;;
41815;SDS011;27814;53.452;-6.180;2023-01-09T04:45:25;1.33;;;0.70;;
41815;SDS011;27814;53.452;-6.180;2023-01-09T04:47:53;1.10;;;0.20;;
41815;SDS011;27814;53.452;-6.180;2023-01-09T04:50:21;3.30;;;0.40;;
41815;SDS011;27814;53.452;-6.180;2023-01-09T04:52:50;0.85;;;0.20;;
41815;SDS011;27814;53.452;-6.180;2023-01-09T04:55:18;2.00;;;0.25;;
41815;SDS011;27814;53.452;-6.180;2023-01-09T04:57:47;4.40;;;0.60;;
41815;SDS011;27814;53.452;-6.180;2023-01-09T05:00:16;1.08;;;0.20;;
41815;SDS011;27814;53.452;-6.180;2023-01-09T05:02:44;2.20;;;0.40;;
41815;SDS011;27814;53.452;-6.180;2023-01-09T05:05:13;1.88;;;0.50;;
41815;SDS011;27814;53.452;-6.180;2023-01-09T05:07:41;4.97;;;0.50;;
41815;SDS011;27814;53.452;-6.180;2023-01-09T05:10:10;4.47;;;0.60;;
41815;SDS011;27814;53.452;-6.180;2023-01-09T05:12:39;3.33;;;0.55;;
41815;SDS011;27814;53.452;-6.180;2023-01-09T05:15:09;2.90;;;0.60;;
41815;SDS011;27814;53.452;-6.180;2023-01-09T05:17:38;3.30;;;0.57;;
41815;SDS011;27814;53.452;-6.180;2023-01-09T05:20:06;4.25;;;0.90;;
41815;SDS011;27814;53.452;-6.180;2023-01-09T05:22:35;2.22;;;0.50;;
41815;SDS011;27814;53.452;-6.180;2023-01-09T05:25:04;4.40;;;0.80;;
41815;SDS011;27814;53.452;-6.180;2023-01-09T05:27:33;6.25;;;0.65;;
41815;SDS011;27814;53.452;-6.180;2023-01-09T05:30:01;4.82;;;0.70;;
41815;SDS011;27814;53.452;-6.180;2023-01-09T05:32:31;4.70;;;0.70;;
41815;SDS011;27814;53.452;-6.180;2023-01-09T05:34:59;4.07;;;0.60;;
41815;SDS011;27814;53.452;-6.180;2023-01-09T05:37:27;5.13;;;0.90;;
41815;SDS011;27814;53.452;-6.180;2023-01-09T05:39:55;4.95;;;1.15;;
41815;SDS011;27814;53.452;-6.180;2023-01-09T05:42:24;4.18;;;0.68;;
41815;SDS011;27814;53.452;-6.180;2023-01-09T05:44:52;4.20;;;0.65;;
41815;SDS011;27814;53.452;-6.180;2023-01-09T05:47:20;3.60;;;0.65;;
41815;SDS011;27814;53.452;-6.180;2023-01-09T05:49:50;4.88;;;0.88;;
41815;SDS011;27814;53.452;-6.180;2023-01-09T05:52:18;5.68;;;0.85;;
41815;SDS011;27814;53.452;-6.180;2023-01-09T05:54:46;3.25;;;0.60;;
41815;SDS011;27814;53.452;-6.180;2023-01-09T05:57:15;2.78;;;0.80;;
41815;SDS011;27814;53.452;-6.180;2023-01-09T05:59:43;4.25;;;0.80;;
41815;SDS011;27814;53.452;-6.180;2023-01-09T06:02:11;5.60;;;0.70;;
41815;SDS011;27814;53.452;-6.180;2023-01-09T06:04:40;6.68;;;0.90;;
41815;SDS011;27814;53.452;-6.180;2023-01-09T06:07:10;4.22;;;1.00;;
41815;SDS011;27814;53.452;-6.180;2023-01-09T06:09:45;3.20;;;0.65;;
41815;SDS011;27814;53.452;-6.180;2023-01-09T06:12:13;3.90;;;0.65;;
41815;SDS011;27814;53.452;-6.180;2023-01-09T06:14:41;5.90;;;0.90;;
41815;SDS011;27814;53.452;-6.180;2023-01-09T06:17:09;4.57;;;1.10;;
41815;SDS011;27814;53.452;-6.180;2023-01-09T06:19:38;8.73;;;1.27;;
41815;SDS011;27814;53.452;-6.180;2023-01-09T06:22:06;4.35;;;1.00;;
41815;SDS011;27814;53.452;-6.180;2023-01-09T06:24:36;5.75;;;0.95;;
41815;SDS011;27814;53.452;-6.180;2023-01-09T06:27:05;5.45;;;1.10;;
41815;SDS011;27814;53.452;-6.180;2023-01-09T06:29:34;7.45;;;1.30;;
41815;SDS011;27814;53.452;-6.180;2023-01-09T06:32:02;5.57;;;1.10;;
41815;SDS011;27814;53.452;-6.180;2023-01-09T06:34:31;4.15;;;0.90;;
41815;SDS011;27814;53.452;-6.180;2023-01-09T06:36:59;5.82;;;1.48;;
41815;SDS011;27814;53.452;-6.180;2023-01-09T06:39:28;6.20;;;1.08;;
41815;SDS011;27814;53.452;-6.180;2023-01-09T06:41:57;7.05;;;1.30;;
41815;SDS011;27814;53.452;-6.180;2023-01-09T06:44:26;6.75;;;1.10;;
41815;SDS011;27814;53.452;-6.180;2023-01-09T06:46:54;6.82;;;0.98;;
41815;SDS011;27814;53.452;-6.180;2023-01-09T06:49:22;6.93;;;1.00;;
41815;SDS011;27814;53.452;-6.180;2023-01-09T06:51:51;7.97;;;1.08;;
41815;SDS011;27814;53.452;-6.180;2023-01-09T06:54:19;10.57;;;1.70;;
41815;SDS011;27814;53.452;-6.180;2023-01-09T06:56:48;9.05;;;1.30;;
41815;SDS011;27814;53.452;-6.180;2023-01-09T06:59:18;7.10;;;1.10;;
41815;SDS011;27814;53.452;-6.180;2023-01-09T07:01:46;6.90;;;1.03;;
41815;SDS011;27814;53.452;-6.180;2023-01-09T07:04:14;5.72;;;0.80;;
41815;SDS011;27814;53.452;-6.180;2023-01-09T07:06:45;6.10;;;1.25;;
41815;SDS011;27814;53.452;-6.180;2023-01-09T07:09:14;9.30;;;1.40;;
41815;SDS011;27814;53.452;-6.180;2023-01-09T07:11:42;7.07;;;1.33;;
41815;SDS011;27814;53.452;-6.180;2023-01-09T07:14:10;5.57;;;1.05;;
41815;SDS011;27814;53.452;-6.180;2023-01-09T07:16:40;10.10;;;1.60;;
41815;SDS011;27814;53.452;-6.180;2023-01-09T07:19:08;7.70;;;1.30;;
41815;SDS011;27814;53.452;-6.180;2023-01-09T07:21:37;11.63;;;1.77;;
41815;SDS011;27814;53.452;-6.180;2023-01-09T07:24:05;6.85;;;1.10;;
41815;SDS011;27814;53.452;-6.180;2023-01-09T07:26:33;5.47;;;1.30;;
41815;SDS011;27814;53.452;-6.180;2023-01-09T07:29:02;7.93;;;1.50;;
41815;SDS011;27814;53.452;-6.180;2023-01-09T07:31:30;7.70;;;1.50;;
41815;SDS011;27814;53.452;-6.180;2023-01-09T07:34:00;9.40;;;1.63;;
41815;SDS011;27814;53.452;-6.180;2023-01-09T07:36:29;8.30;;;1.48;;
41815;SDS011;27814;53.452;-6.180;2023-01-09T07:38:57;6.57;;;1.13;;
41815;SDS011;27814;53.452;-6.180;2023-01-09T07:41:25;9.63;;;1.70;;
41815;SDS011;27814;53.452;-6.180;2023-01-09T07:43:54;8.50;;;1.73;;
41815;SDS011;27814;53.452;-6.180;2023-01-09T07:46:23;10.63;;;1.70;;
41815;SDS011;27814;53.452;-6.180;2023-01-09T07:48:52;9.75;;;1.40;;
41815;SDS011;27814;53.452;-6.180;2023-01-09T07:51:22;9.77;;;1.65;;
41815;SDS011;27814;53.452;-6.180;2023-01-09T07:53:50;8.82;;;1.40;;
41815;SDS011;27814;53.452;-6.180;2023-01-09T07:56:19;10.52;;;1.95;;
41815;SDS011;27814;53.452;-6.180;2023-01-09T07:58:48;11.38;;;1.70;;
41815;SDS011;27814;53.452;-6.180;2023-01-09T08:01:17;12.73;;;1.90;;
41815;SDS011;27814;53.452;-6.180;2023-01-09T08:03:45;7.73;;;1.30;;
41815;SDS011;27814;53.452;-6.180;2023-01-09T08:06:14;9.48;;;1.73;;
41815;SDS011;27814;53.452;-6.180;2023-01-09T08:08:43;7.60;;;1.48;;
41815;SDS011;27814;53.452;-6.180;2023-01-09T08:11:12;10.17;;;1.47;;
41815;SDS011;27814;53.452;-6.180;2023-01-09T08:13:40;8.40;;;1.50;;
41815;SDS011;27814;53.452;-6.180;2023-01-09T08:16:08;8.18;;;1.65;;
41815;SDS011;27814;53.452;-6.180;2023-01-09T08:18:36;10.23;;;1.58;;
41815;SDS011;27814;53.452;-6.180;2023-01-09T08:21:05;11.02;;;1.48;;
41815;SDS011;27814;53.452;-6.180;2023-01-09T08:23:33;6.43;;;1.23;;
41815;SDS011;27814;53.452;-6.180;2023-01-09T08:26:03;10.40;;;2.22;;
41815;SDS011;27814;53.452;-6.180;2023-01-09T08:28:31;8.88;;;1.60;;
41815;SDS011;27814;53.452;-6.180;2023-01-09T08:30:59;10.02;;;1.88;;
41815;SDS011;27814;53.452;-6.180;2023-01-09T08:33:28;11.48;;;1.80;;
41815;SDS011;27814;53.452;-6.180;2023-01-09T08:35:57;8.93;;;1.58;;
41815;SDS011;27814;53.452;-6.180;2023-01-09T08:38:26;9.98;;;1.40;;
41815;SDS011;27814;53.452;-6.180;2023-01-09T08:40:54;8.55;;;1.48;;
41815;SDS011;27814;53.452;-6.180;2023-01-09T08:43:24;12.68;;;2.13;;
41815;SDS011;27814;53.452;-6.180;2023-01-09T08:46:11;11.43;;;1.83;;
41815;SDS011;27814;53.452;-6.180;2023-01-09T08:49:04;7.22;;;1.60;;
41815;SDS011;27814;53.452;-6.180;2023-01-09T08:51:33;8.63;;;1.37;;
41815;SDS011;27814;53.452;-6.180;2023-01-09T08:54:01;12.52;;;1.60;;
41815;SDS011;27814;53.452;-6.180;2023-01-09T08:56:29;13.30;;;1.90;;
41815;SDS011;27814;53.452;-6.180;2023-01-09T08:59:01;10.18;;;1.90;;
41815;SDS011;27814;53.452;-6.180;2023-01-09T09:01:29;7.70;;;1.35;;
41815;SDS011;27814;53.452;-6.180;2023-01-09T09:03:58;10.50;;;1.70;;
41815;SDS011;27814;53.452;-6.180;2023-01-09T09:06:26;11.98;;;2.10;;
41815;SDS011;27814;53.452;-6.180;2023-01-09T09:08:54;8.90;;;1.63;;
41815;SDS011;27814;53.452;-6.180;2023-01-09T09:11:23;8.40;;;1.85;;
41815;SDS011;27814;53.452;-6.180;2023-01-09T09:13:51;8.50;;;1.83;;
41815;SDS011;27814;53.452;-6.180;2023-01-09T09:16:21;8.63;;;1.38;;
41815;SDS011;27814;53.452;-6.180;2023-01-09T09:18:49;8.52;;;1.60;;
41815;SDS011;27814;53.452;-6.180;2023-01-09T09:21:17;7.70;;;1.70;;
41815;SDS011;27814;53.452;-6.180;2023-01-09T09:23:46;8.73;;;1.88;;
41815;SDS011;27814;53.452;-6.180;2023-01-09T09:26:15;8.45;;;2.08;;
41815;SDS011;27814;53.452;-6.180;2023-01-09T09:28:43;8.73;;;1.20;;
41815;SDS011;27814;53.452;-6.180;2023-01-09T09:31:11;7.25;;;1.20;;
41815;SDS011;27814;53.452;-6.180;2023-01-09T09:33:49;6.43;;;1.48;;
41815;SDS011;27814;53.452;-6.180;2023-01-09T09:36:18;14.68;;;2.38;;
41815;SDS011;27814;53.452;-6.180;2023-01-09T09:38:46;9.95;;;1.25;;
41815;SDS011;27814;53.452;-6.180;2023-01-09T09:41:18;7.53;;;1.50;;
41815;SDS011;27814;53.452;-6.180;2023-01-09T09:44:18;7.13;;;1.48;;
41815;SDS011;27814;53.452;-6.180;2023-01-09T09:47:22;10.68;;;1.90;;
41815;SDS011;27814;53.452;-6.180;2023-01-09T09:50:09;9.00;;;1.67;;
41815;SDS011;27814;53.452;-6.180;2023-01-09T09:53:05;7.40;;;1.30;;
41815;SDS011;27814;53.452;-6.180;2023-01-09T09:55:37;7.97;;;1.67;;
41815;SDS011;27814;53.452;-6.180;2023-01-09T09:58:09;9.63;;;1.90;;
41815;SDS011;27814;53.452;-6.180;2023-01-09T10:00:43;10.10;;;2.00;;
41815;SDS011;27814;53.452;-6.180;2023-01-09T10:03:12;18.33;;;2.07;;
41815;SDS011;27814;53.452;-6.180;2023-01-09T10:06:04;8.45;;;1.83;;
41815;SDS011;27814;53.452;-6.180;2023-01-09T10:08:36;9.18;;;1.83;;
41815;SDS011;27814;53.452;-6.180;2023-01-09T10:11:14;9.23;;;1.55;;
41815;SDS011;27814;53.452;-6.180;2023-01-09T10:13:48;8.50;;;1.67;;
41815;SDS011;27814;53.452;-6.180;2023-01-09T10:19:42;7.97;;;2.03;;
41815;SDS011;27814;53.452;-6.180;2023-01-09T10:22:25;8.48;;;1.98;;
41815;SDS011;27814;53.452;-6.180;2023-01-09T10:25:03;6.65;;;1.30;;
41815;SDS011;27814;53.452;-6.180;2023-01-09T10:27:50;9.48;;;1.50;;
41815;SDS011;27814;53.452;-6.180;2023-01-09T10:30:29;8.77;;;1.60;;
41815;SDS011;27814;53.452;-6.180;2023-01-09T10:33:05;11.43;;;1.65;;
41815;SDS011;27814;53.452;-6.180;2023-01-09T10:35:49;9.60;;;1.70;;
41815;SDS011;27814;53.452;-6.180;2023-01-09T10:38:41;11.27;;;1.50;;
41815;SDS011;27814;53.452;-6.180;2023-01-09T10:41:13;7.38;;;1.38;;
41815;SDS011;27814;53.452;-6.180;2023-01-09T10:43:48;7.15;;;1.20;;
41815;SDS011;27814;53.452;-6.180;2023-01-09T10:46:22;7.45;;;1.58;;
41815;SDS011;27814;53.452;-6.180;2023-01-09T10:48:55;12.27;;;1.63;;
41815;SDS011;27814;53.452;-6.180;2023-01-09T10:51:27;7.88;;;1.38;;
41815;SDS011;27814;53.452;-6.180;2023-01-09T10:54:02;11.60;;;2.63;;
41815;SDS011;27814;53.452;-6.180;2023-01-09T10:56:38;8.38;;;1.45;;
41815;SDS011;27814;53.452;-6.180;2023-01-09T10:59:11;10.35;;;1.77;;
41815;SDS011;27814;53.452;-6.180;2023-01-09T11:01:39;6.80;;;1.73;;
41815;SDS011;27814;53.452;-6.180;2023-01-09T11:04:11;6.40;;;1.33;;
41815;SDS011;27814;53.452;-6.180;2023-01-09T11:06:49;8.38;;;1.55;;
41815;SDS011;27814;53.452;-6.180;2023-01-09T11:09:23;7.03;;;1.60;;
41815;SDS011;27814;53.452;-6.180;2023-01-09T11:11:51;6.35;;;1.45;;
41815;SDS011;27814;53.452;-6.180;2023-01-09T11:14:22;10.27;;;1.58;;
41815;SDS011;27814;53.452;-6.180;2023-01-09T11:16:57;6.35;;;1.15;;
41815;SDS011;27814;53.452;-6.180;2023-01-09T11:19:26;7.50;;;1.60;;
41815;SDS011;27814;53.452;-6.180;2023-01-09T11:22:04;7.75;;;1.42;;
41815;SDS011;27814;53.452;-6.180;2023-01-09T11:24:35;6.03;;;1.23;;
41815;SDS011;27814;53.452;-6.180;2023-01-09T11:27:18;7.17;;;1.30;;
41815;SDS011;27814;53.452;-6.180;2023-01-09T11:32:42;7.80;;;1.13;;
41815;SDS011;27814;53.452;-6.180;2023-01-09T11:35:16;6.33;;;1.20;;
41815;SDS011;27814;53.452;-6.180;2023-01-09T11:40:47;7.38;;;1.30;;
41815;SDS011;27814;53.452;-6.180;2023-01-09T11:43:22;9.00;;;1.38;;
41815;SDS011;27814;53.452;-6.180;2023-01-09T11:45:59;6.50;;;1.10;;
41815;SDS011;27814;53.452;-6.180;2023-01-09T11:48:33;9.65;;;1.40;;
41815;SDS011;27814;53.452;-6.180;2023-01-09T11:51:17;8.85;;;1.38;;
41815;SDS011;27814;53.452;-6.180;2023-01-09T11:53:49;8.48;;;1.00;;
41815;SDS011;27814;53.452;-6.180;2023-01-09T11:56:44;5.00;;;1.20;;
41815;SDS011;27814;53.452;-6.180;2023-01-09T11:59:14;7.40;;;1.55;;
41815;SDS011;27814;53.452;-6.180;2023-01-09T12:01:51;11.57;;;1.75;;
41815;SDS011;27814;53.452;-6.180;2023-01-09T12:04:41;9.18;;;1.50;;
41815;SDS011;27814;53.452;-6.180;2023-01-09T12:10:32;7.15;;;1.40;;
41815;SDS011;27814;53.452;-6.180;2023-01-09T12:13:20;9.88;;;2.20;;
41815;SDS011;27814;53.452;-6.180;2023-01-09T12:16:02;12.40;;;2.40;;
41815;SDS011;27814;53.452;-6.180;2023-01-09T12:18:45;13.80;;;2.13;;
41815;SDS011;27814;53.452;-6.180;2023-01-09T12:21:31;11.40;;;2.22;;
41815;SDS011;27814;53.452;-6.180;2023-01-09T12:24:26;12.63;;;2.50;;
41815;SDS011;27814;53.452;-6.180;2023-01-09T12:27:14;10.13;;;2.05;;
41815;SDS011;27814;53.452;-6.180;2023-01-09T12:29:55;9.75;;;2.10;;
41815;SDS011;27814;53.452;-6.180;2023-01-09T12:32:42;12.40;;;2.20;;
41815;SDS011;27814;53.452;-6.180;2023-01-09T12:35:22;13.55;;;2.42;;
41815;SDS011;27814;53.452;-6.180;2023-01-09T12:38:07;14.17;;;2.40;;
41815;SDS011;27814;53.452;-6.180;2023-01-09T12:44:04;19.17;;;2.50;;
41815;SDS011;27814;53.452;-6.180;2023-01-09T12:47:04;11.00;;;2.15;;
41815;SDS011;27814;53.452;-6.180;2023-01-09T12:50:16;11.53;;;2.30;;
41815;SDS011;27814;53.452;-6.180;2023-01-09T12:53:02;13.13;;;2.50;;
41815;SDS011;27814;53.452;-6.180;2023-01-09T12:55:37;13.35;;;2.45;;
41815;SDS011;27814;53.452;-6.180;2023-01-09T12:58:11;15.30;;;2.43;;
41815;SDS011;27814;53.452;-6.180;2023-01-09T13:00:46;12.43;;;2.10;;
41815;SDS011;27814;53.452;-6.180;2023-01-09T13:03:19;12.10;;;2.30;;
41815;SDS011;27814;53.452;-6.180;2023-01-09T13:05:53;12.70;;;2.50;;
41815;SDS011;27814;53.452;-6.180;2023-01-09T13:08:24;14.20;;;2.92;;
41815;SDS011;27814;53.452;-6.180;2023-01-09T13:10:58;20.95;;;3.17;;
41815;SDS011;27814;53.452;-6.180;2023-01-09T13:13:45;14.20;;;2.50;;
41815;SDS011;27814;53.452;-6.180;2023-01-09T13:16:16;14.35;;;2.90;;
41815;SDS011;27814;53.452;-6.180;2023-01-09T13:18:51;14.45;;;2.67;;
41815;SDS011;27814;53.452;-6.180;2023-01-09T13:21:22;11.43;;;2.28;;
41815;SDS011;27814;53.452;-6.180;2023-01-09T13:23:52;16.10;;;3.20;;
41815;SDS011;27814;53.452;-6.180;2023-01-09T13:26:25;15.77;;;2.70;;
41815;SDS011;27814;53.452;-6.180;2023-01-09T13:28:56;14.55;;;2.78;;
41815;SDS011;27814;53.452;-6.180;2023-01-09T13:31:42;11.95;;;2.33;;
41815;SDS011;27814;53.452;-6.180;2023-01-09T13:34:26;16.42;;;3.00;;
41815;SDS011;27814;53.452;-6.180;2023-01-09T13:36:56;14.23;;;2.50;;
41815;SDS011;27814;53.452;-6.180;2023-01-09T13:39:27;14.95;;;2.70;;
41815;SDS011;27814;53.452;-6.180;2023-01-09T13:41:58;15.93;;;3.00;;
41815;SDS011;27814;53.452;-6.180;2023-01-09T13:44:45;15.55;;;2.78;;
41815;SDS011;27814;53.452;-6.180;2023-01-09T13:47:16;12.32;;;2.70;;
41815;SDS011;27814;53.452;-6.180;2023-01-09T13:49:59;15.27;;;2.67;;
41815;SDS011;27814;53.452;-6.180;2023-01-09T13:52:46;17.70;;;3.13;;
41815;SDS011;27814;53.452;-6.180;2023-01-09T13:55:24;16.15;;;2.72;;
41815;SDS011;27814;53.452;-6.180;2023-01-09T14:00:52;18.75;;;3.78;;
41815;SDS011;27814;53.452;-6.180;2023-01-09T14:03:23;23.48;;;3.35;;
41815;SDS011;27814;53.452;-6.180;2023-01-09T14:06:14;17.88;;;2.92;;
41815;SDS011;27814;53.452;-6.180;2023-01-09T14:08:45;18.25;;;2.97;;
41815;SDS011;27814;53.452;-6.180;2023-01-09T14:11:20;15.97;;;3.40;;
41815;SDS011;27814;53.452;-6.180;2023-01-09T14:14:03;16.90;;;3.72;;
41815;SDS011;27814;53.452;-6.180;2023-01-09T14:16:40;17.63;;;2.60;;
41815;SDS011;27814;53.452;-6.180;2023-01-09T14:19:18;19.25;;;3.05;;
41815;SDS011;27814;53.452;-6.180;2023-01-09T14:21:57;18.83;;;3.20;;
41815;SDS011;27814;53.452;-6.180;2023-01-09T14:24:27;20.65;;;3.45;;
41815;SDS011;27814;53.452;-6.180;2023-01-09T14:26:59;19.52;;;3.00;;
41815;SDS011;27814;53.452;-6.180;2023-01-09T14:29:42;18.65;;;3.15;;
41815;SDS011;27814;53.452;-6.180;2023-01-09T14:35:08;23.15;;;3.35;;
41815;SDS011;27814;53.452;-6.180;2023-01-09T14:37:43;20.98;;;3.33;;
41815;SDS011;27814;53.452;-6.180;2023-01-09T14:40:25;18.85;;;3.20;;
41815;SDS011;27814;53.452;-6.180;2023-01-09T14:42:56;16.60;;;3.15;;
41815;SDS011;27814;53.452;-6.180;2023-01-09T14:45:32;17.95;;;3.05;;
41815;SDS011;27814;53.452;-6.180;2023-01-09T14:48:04;24.67;;;3.83;;
41815;SDS011;27814;53.452;-6.180;2023-01-09T14:50:39;18.20;;;3.53;;
41815;SDS011;27814;53.452;-6.180;2023-01-09T14:53:14;15.73;;;3.03;;
41815;SDS011;27814;53.452;-6.180;2023-01-09T14:55:47;20.73;;;3.33;;
41815;SDS011;27814;53.452;-6.180;2023-01-09T14:58:19;13.32;;;3.10;;
41815;SDS011;27814;53.452;-6.180;2023-01-09T15:00:56;20.48;;;3.38;;
41815;SDS011;27814;53.452;-6.180;2023-01-09T15:03:28;19.17;;;3.33;;
41815;SDS011;27814;53.452;-6.180;2023-01-09T15:06:00;18.80;;;3.42;;
41815;SDS011;27814;53.452;-6.180;2023-01-09T15:08:32;17.10;;;2.78;;
41815;SDS011;27814;53.452;-6.180;2023-01-09T15:11:00;16.58;;;2.85;;
41815;SDS011;27814;53.452;-6.180;2023-01-09T15:13:33;14.75;;;2.78;;
41815;SDS011;27814;53.452;-6.180;2023-01-09T15:16:03;20.40;;;3.35;;
41815;SDS011;27814;53.452;-6.180;2023-01-09T15:18:41;18.10;;;3.30;;
41815;SDS011;27814;53.452;-6.180;2023-01-09T15:21:14;17.10;;;2.83;;
41815;SDS011;27814;53.452;-6.180;2023-01-09T15:23:46;15.20;;;2.78;;
41815;SDS011;27814;53.452;-6.180;2023-01-09T15:26:22;15.35;;;3.03;;